createdAt,value
2023-03-16T00:01:53.098Z,101058.03
2023-03-16T00:04:31.609Z,101061.22
2023-03-16T00:07:09.455Z,101057.97
2023-03-16T00:09:45.380Z,101063.56
2023-03-16T00:12:22.750Z,101064.00
2023-03-16T00:14:58.570Z,101064.75
2023-03-16T00:17:35.014Z,101068.41
2023-03-16T00:20:07.124Z,101066.38
2023-03-16T00:22:42.976Z,101076.91
2023-03-16T00:25:19.786Z,101073.22
2023-03-16T00:27:47.616Z,101075.69
2023-03-16T00:30:20.505Z,101083.31
2023-03-16T00:32:54.733Z,101069.28
2023-03-16T00:35:25.841Z,101080.16
2023-03-16T00:37:58.514Z,101084.16
2023-03-16T00:40:30.164Z,101086.13
2023-03-16T00:43:07.012Z,101083.31
2023-03-16T00:45:44.790Z,101080.97
2023-03-16T00:48:18.478Z,101079.34
2023-03-16T00:50:54.533Z,101083.84
2023-03-16T00:53:30.718Z,101086.28
2023-03-16T00:55:58.462Z,101083.44
2023-03-16T00:58:35.874Z,101077.38
2023-03-16T01:01:23.090Z,101077.38
2023-03-16T01:03:56.169Z,101081.41
2023-03-16T01:06:35.438Z,101077.34
2023-03-16T01:09:09.774Z,101073.78
2023-03-16T01:11:43.780Z,101081.00
2023-03-16T01:14:14.321Z,101077.47
2023-03-16T01:16:51.950Z,101077.06
2023-03-16T01:19:28.450Z,101063.78
2023-03-16T01:22:08.583Z,101070.22
2023-03-16T01:24:45.218Z,101066.28
2023-03-16T01:27:23.280Z,101059.78
2023-03-16T01:30:02.358Z,101065.50
2023-03-16T01:32:42.276Z,101066.28
2023-03-16T01:35:22.398Z,101063.75
2023-03-16T01:37:58.821Z,101059.34
2023-03-16T01:40:29.710Z,101062.25
2023-03-16T01:43:11.355Z,101052.94
2023-03-16T01:46:07.671Z,101049.31
2023-03-16T01:48:54.619Z,101043.25
2023-03-16T01:51:50.701Z,101047.69
2023-03-16T01:54:27.833Z,101046.50
2023-03-16T01:57:10.466Z,101054.06
2023-03-16T01:59:45.155Z,101053.28
2023-03-16T02:02:23.888Z,101050.91
2023-03-16T02:05:14.351Z,101054.91
2023-03-16T02:07:47.959Z,101052.16
2023-03-16T02:10:20.750Z,101051.03
2023-03-16T02:12:58.114Z,101051.47
2023-03-16T02:15:36.829Z,101053.50
2023-03-16T02:18:12.772Z,101056.72
2023-03-16T02:20:55.010Z,101059.19
2023-03-16T02:23:29.652Z,101050.78
2023-03-16T02:26:18.666Z,101059.25
2023-03-16T02:29:05.262Z,101054.81
2023-03-16T02:31:41.819Z,101056.34
2023-03-16T02:34:13.229Z,101048.31
2023-03-16T02:36:48.858Z,101049.16
2023-03-16T02:39:27.350Z,101049.50
2023-03-16T02:42:13.568Z,101054.38
2023-03-16T02:44:50.953Z,101050.69
2023-03-16T02:47:42.954Z,101057.03
2023-03-16T02:50:19.302Z,101061.56
2023-03-16T02:52:48.486Z,101064.34
2023-03-16T02:55:25.080Z,101064.34
2023-03-16T02:57:58.687Z,101059.84
2023-03-16T03:00:34.774Z,101060.72
2023-03-16T03:03:09.561Z,101064.66
2023-03-16T03:05:49.393Z,101067.06
2023-03-16T03:08:25.572Z,101063.44
2023-03-16T03:10:56.954Z,101075.50
2023-03-16T03:13:35.334Z,101070.72
2023-03-16T03:16:08.857Z,101075.56
2023-03-16T03:18:41.985Z,101070.31
2023-03-16T03:21:13.234Z,101070.34
2023-03-16T03:23:51.860Z,101075.19
2023-03-16T03:26:25.883Z,101074.78
2023-03-16T03:28:58.267Z,101072.31
2023-03-16T03:31:33.720Z,101077.56
2023-03-16T03:34:07.450Z,101082.81
2023-03-16T03:36:41.523Z,101080.03
2023-03-16T03:39:14.417Z,101083.59
2023-03-16T03:41:47.867Z,101086.81
2023-03-16T03:44:18.583Z,101086.38
2023-03-16T03:46:57.643Z,101088.72
2023-03-16T03:49:33.415Z,101098.44
2023-03-16T03:52:09.812Z,101096.41
2023-03-16T03:54:48.459Z,101105.38
2023-03-16T03:57:23.290Z,101100.09
2023-03-16T03:59:55.991Z,101108.94
2023-03-16T04:02:29.124Z,101113.75
2023-03-16T04:05:09.153Z,101112.97
2023-03-16T04:07:49.491Z,101114.16
2023-03-16T04:10:21.115Z,101118.19
2023-03-16T04:12:59.796Z,101119.75
2023-03-16T04:15:40.887Z,101124.25
2023-03-16T04:18:19.512Z,101135.09
2023-03-16T04:20:55.145Z,101140.66
2023-03-16T04:23:30.462Z,101141.06
2023-03-16T04:26:01.040Z,101139.78
2023-03-16T04:28:36.344Z,101146.31
2023-03-16T04:31:13.065Z,101139.00
2023-03-16T04:33:50.257Z,101134.97
2023-03-16T04:36:33.243Z,101141.00
2023-03-16T04:39:06.844Z,101146.63
2023-03-16T04:41:40.178Z,101145.38
2023-03-16T04:44:26.279Z,101155.50
2023-03-16T04:47:06.395Z,101148.69
2023-03-16T04:49:45.666Z,101153.97
2023-03-16T04:52:16.298Z,101154.28
2023-03-16T04:54:54.871Z,101157.56
2023-03-16T04:57:25.573Z,101161.19
2023-03-16T05:00:09.876Z,101160.78
2023-03-16T05:02:46.592Z,101158.00
2023-03-16T05:05:25.072Z,101158.81
2023-03-16T05:08:01.695Z,101163.97
2023-03-16T05:10:37.040Z,101161.66
2023-03-16T05:13:15.961Z,101170.50
2023-03-16T05:15:48.086Z,101171.72
2023-03-16T05:18:35.573Z,101178.53
2023-03-16T05:21:11.543Z,101176.13
2023-03-16T05:24:08.387Z,101183.00
2023-03-16T05:26:41.862Z,101185.44
2023-03-16T05:29:20.929Z,101190.72
2023-03-16T05:31:51.537Z,101197.50
2023-03-16T05:34:31.655Z,101199.06
2023-03-16T05:37:05.032Z,101196.31
2023-03-16T05:39:41.592Z,101204.78
2023-03-16T05:42:19.820Z,101204.41
2023-03-16T05:44:58.349Z,101218.41
2023-03-16T05:47:45.136Z,101205.44
2023-03-16T05:50:21.110Z,101214.38
2023-03-16T05:53:00.114Z,101206.00
2023-03-16T05:55:31.124Z,101221.34
2023-03-16T05:58:08.432Z,101225.41
2023-03-16T06:00:50.465Z,101229.50
2023-03-16T06:03:37.546Z,101235.91
2023-03-16T06:06:12.647Z,101239.91
2023-03-16T06:09:01.242Z,101232.69
2023-03-16T06:11:32.308Z,101235.13
2023-03-16T06:14:08.388Z,101245.69
2023-03-16T06:16:43.150Z,101242.84
2023-03-16T06:19:23.705Z,101250.38
2023-03-16T06:22:05.168Z,101256.09
2023-03-16T06:24:40.584Z,101256.84
2023-03-16T06:27:16.676Z,101254.19
2023-03-16T06:30:07.066Z,101263.78
2023-03-16T06:32:47.048Z,101272.91
2023-03-16T06:35:22.830Z,101268.13
2023-03-16T06:38:11.188Z,101277.97
2023-03-16T06:41:06.916Z,101287.31
2023-03-16T06:43:41.066Z,101286.13
2023-03-16T06:46:20.131Z,101298.66
2023-03-16T06:48:51.020Z,101298.28
2023-03-16T06:51:25.405Z,101305.56
2023-03-16T06:54:07.027Z,101299.84
2023-03-16T06:56:41.943Z,101308.28
2023-03-16T06:59:23.384Z,101316.88
2023-03-16T07:01:59.904Z,101319.75
2023-03-16T07:04:37.361Z,101318.09
2023-03-16T07:07:17.429Z,101329.47
2023-03-16T07:09:53.252Z,101335.56
2023-03-16T07:12:23.104Z,101328.72
2023-03-16T07:14:59.028Z,101336.78
2023-03-16T07:17:38.915Z,101336.78
2023-03-16T07:20:22.905Z,101343.25
2023-03-16T07:23:08.155Z,101349.66
2023-03-16T07:25:48.238Z,101342.34
2023-03-16T07:28:26.871Z,101354.59
2023-03-16T07:31:06.251Z,101354.97
2023-03-16T07:33:44.574Z,101361.00
2023-03-16T07:36:28.144Z,101360.69
2023-03-16T07:39:17.971Z,101355.91
2023-03-16T07:41:57.066Z,101359.09
2023-03-16T07:44:58.026Z,101364.09
2023-03-16T07:47:34.322Z,101368.06
2023-03-16T07:50:16.734Z,101376.97
2023-03-16T07:52:47.574Z,101375.13
2023-03-16T07:55:23.839Z,101383.59
2023-03-16T07:57:55.200Z,101381.53
2023-03-16T08:00:39.962Z,101384.84
2023-03-16T08:03:14.137Z,101386.47
2023-03-16T08:05:48.206Z,101389.75
2023-03-16T08:08:29.235Z,101387.72
2023-03-16T08:11:03.700Z,101392.25
2023-03-16T08:13:57.114Z,101394.72
2023-03-16T08:16:33.013Z,101393.91
2023-03-16T08:19:03.937Z,101398.25
2023-03-16T08:21:59.781Z,101392.25
2023-03-16T08:24:45.359Z,101407.28
2023-03-16T08:27:23.380Z,101410.16
2023-03-16T08:30:07.182Z,101409.34
2023-03-16T08:32:43.053Z,101409.34
2023-03-16T08:35:20.228Z,101413.81
2023-03-16T08:37:59.986Z,101408.97
2023-03-16T08:40:35.938Z,101415.06
2023-03-16T08:43:10.137Z,101413.75
2023-03-16T08:45:49.944Z,101408.09
2023-03-16T08:48:29.898Z,101419.84
2023-03-16T08:51:11.851Z,101418.75
2023-03-16T08:53:48.062Z,101421.56
2023-03-16T08:56:32.603Z,101424.84
2023-03-16T08:59:27.359Z,101421.25
2023-03-16T09:02:14.889Z,101434.56
2023-03-16T09:04:52.784Z,101437.00
2023-03-16T09:07:29.481Z,101435.47
2023-03-16T09:10:10.193Z,101437.25
2023-03-16T09:12:50.818Z,101448.22
2023-03-16T09:15:37.693Z,101452.06
2023-03-16T09:18:15.283Z,101451.38
2023-03-16T09:20:51.752Z,101453.44
2023-03-16T09:23:21.069Z,101449.63
2023-03-16T09:25:57.835Z,101452.88
2023-03-16T09:28:29.587Z,101447.78
2023-03-16T09:30:59.037Z,101457.25
2023-03-16T09:33:34.019Z,101461.41
2023-03-16T09:36:06.325Z,101464.72
2023-03-16T09:38:37.465Z,101462.38
2023-03-16T09:41:31.771Z,101470.47
2023-03-16T09:44:13.735Z,101465.09
2023-03-16T09:46:48.745Z,101467.59
2023-03-16T09:49:26.205Z,101462.81
2023-03-16T09:52:02.209Z,101467.59
2023-03-16T09:54:50.961Z,101470.53
2023-03-16T09:57:31.115Z,101458.91
2023-03-16T10:00:19.906Z,101467.94
2023-03-16T10:02:51.231Z,101471.59
2023-03-16T10:05:32.118Z,101467.97
2023-03-16T10:08:30.988Z,101469.56
2023-03-16T10:11:24.559Z,101472.78
2023-03-16T10:14:17.739Z,101465.88
2023-03-16T10:16:57.037Z,101470.81
2023-03-16T10:19:43.563Z,101478.53
2023-03-16T10:22:18.757Z,101471.66
2023-03-16T10:25:07.973Z,101477.69
2023-03-16T10:27:43.588Z,101485.47
2023-03-16T10:30:34.433Z,101476.13
2023-03-16T10:33:25.081Z,101472.91
2023-03-16T10:36:16.804Z,101474.53
2023-03-16T10:39:01.605Z,101471.63
2023-03-16T10:41:43.390Z,101474.06
2023-03-16T10:44:30.234Z,101466.84
2023-03-16T10:47:17.035Z,101470.03
2023-03-16T10:49:55.214Z,101471.31
2023-03-16T10:52:33.317Z,101471.84
2023-03-16T10:55:16.090Z,101472.63
2023-03-16T10:58:08.909Z,101471.41
2023-03-16T11:00:50.234Z,101471.03
2023-03-16T11:03:45.195Z,101463.22
2023-03-16T11:06:27.974Z,101471.31
2023-03-16T11:09:14.003Z,101466.44
2023-03-16T11:11:54.116Z,101462.84
2023-03-16T11:14:36.361Z,101464.16
2023-03-16T11:17:44.649Z,101455.63
2023-03-16T11:20:44.010Z,101453.22
2023-03-16T11:23:27.809Z,101453.94
2023-03-16T11:26:17.764Z,101450.34
2023-03-16T11:29:09.879Z,101443.91
2023-03-16T11:31:53.656Z,101451.19
2023-03-16T11:34:35.358Z,101447.22
2023-03-16T11:37:45.562Z,101437.91
2023-03-16T11:40:36.552Z,101443.47
2023-03-16T11:43:15.263Z,101443.19
2023-03-16T11:46:16.710Z,101435.50
2023-03-16T11:49:00.025Z,101429.69
2023-03-16T11:51:54.309Z,101423.66
2023-03-16T11:54:25.041Z,101424.91
2023-03-16T11:57:15.495Z,101420.44
2023-03-16T12:00:05.164Z,101411.78
2023-03-16T12:02:55.499Z,101423.88
2023-03-16T12:05:58.348Z,101416.56
2023-03-16T12:09:04.514Z,101415.34
2023-03-16T12:11:51.377Z,101419.78
2023-03-16T12:14:34.127Z,101417.41
2023-03-16T12:17:18.474Z,101409.44
2023-03-16T12:20:24.866Z,101405.41
2023-03-16T12:23:24.455Z,101398.41
2023-03-16T12:25:56.002Z,101399.28
2023-03-16T12:28:31.913Z,101393.66
2023-03-16T12:31:12.210Z,101389.94
2023-03-16T12:34:02.623Z,101391.56
2023-03-16T12:36:58.217Z,101384.56
2023-03-16T12:39:45.716Z,101385.88
2023-03-16T12:42:47.546Z,101376.00
2023-03-16T12:45:32.729Z,101380.84
2023-03-16T12:48:31.160Z,101365.09
2023-03-16T12:51:08.067Z,101380.91
2023-03-16T12:53:49.903Z,101378.09
2023-03-16T12:56:39.182Z,101375.28
2023-03-16T12:59:23.353Z,101375.31
2023-03-16T13:01:58.266Z,101381.00
2023-03-16T13:04:45.635Z,101372.84
2023-03-16T13:07:34.356Z,101368.41
2023-03-16T13:10:12.441Z,101366.38
2023-03-16T13:12:41.895Z,101370.84
2023-03-16T13:15:23.206Z,101365.94
2023-03-16T13:18:21.274Z,101366.81
2023-03-16T13:21:18.566Z,101375.28
2023-03-16T13:24:00.219Z,101352.19
2023-03-16T13:26:41.847Z,101355.78
2023-03-16T13:29:28.554Z,101348.09
2023-03-16T13:32:01.862Z,101351.38
2023-03-16T13:34:56.686Z,101353.81
2023-03-16T13:37:28.552Z,101359.50
2023-03-16T13:40:04.820Z,101353.00
2023-03-16T13:42:33.858Z,101350.53
2023-03-16T13:45:14.433Z,101349.69
2023-03-16T13:47:44.396Z,101348.56
2023-03-16T13:50:18.250Z,101346.47
2023-03-16T13:52:58.279Z,101346.00
2023-03-16T13:55:37.815Z,101336.34
2023-03-16T13:58:11.411Z,101341.59
2023-03-16T14:00:47.898Z,101328.28
2023-03-16T14:03:22.417Z,101331.09
2023-03-16T14:06:03.018Z,101327.06
2023-03-16T14:08:34.538Z,101335.50
2023-03-16T14:11:17.982Z,101327.03
2023-03-16T14:14:06.489Z,101333.94
2023-03-16T14:16:46.857Z,101339.06
2023-03-16T14:19:29.955Z,101327.31
2023-03-16T14:22:08.351Z,101327.28
2023-03-16T14:24:41.310Z,101318.84
2023-03-16T14:27:19.932Z,101320.56
2023-03-16T14:29:57.172Z,101325.00
2023-03-16T14:32:35.183Z,101321.78
2023-03-16T14:35:16.955Z,101327.22
2023-03-16T14:37:49.433Z,101320.22
2023-03-16T14:40:33.572Z,101323.84
2023-03-16T14:43:09.827Z,101319.72
2023-03-16T14:45:48.147Z,101314.44
2023-03-16T14:48:24.225Z,101318.44
2023-03-16T14:51:01.872Z,101322.44
2023-03-16T14:53:43.576Z,101326.19
2023-03-16T14:56:22.235Z,101330.13
2023-03-16T14:58:58.652Z,101336.09
2023-03-16T15:01:38.466Z,101329.03
2023-03-16T15:04:16.551Z,101329.13
2023-03-16T15:06:58.834Z,101330.25
2023-03-16T15:09:52.180Z,101331.34
2023-03-16T15:12:43.802Z,101328.97
2023-03-16T15:15:20.010Z,101327.00
2023-03-16T15:17:55.871Z,101317.72
2023-03-16T15:20:42.592Z,101321.69
2023-03-16T15:23:17.729Z,101326.97
2023-03-16T15:25:47.720Z,101332.25
2023-03-16T15:28:23.837Z,101328.22
2023-03-16T15:31:07.138Z,101333.47
2023-03-16T15:33:45.415Z,101327.41
2023-03-16T15:36:27.845Z,101324.63
2023-03-16T15:39:10.136Z,101323.84
2023-03-16T15:41:49.547Z,101326.66
2023-03-16T15:44:23.210Z,101323.38
2023-03-16T15:47:06.517Z,101326.19
2023-03-16T15:49:47.118Z,101322.97
2023-03-16T15:52:30.599Z,101316.78
2023-03-16T15:55:15.403Z,101327.03
2023-03-16T15:57:59.169Z,101327.47
2023-03-16T16:00:33.530Z,101326.56
2023-03-16T16:03:18.704Z,101328.69
2023-03-16T16:06:01.641Z,101329.44
2023-03-16T16:08:43.897Z,101335.09
2023-03-16T16:11:26.003Z,101333.09
2023-03-16T16:14:03.207Z,101332.34
2023-03-16T16:16:45.515Z,101335.19
2023-03-16T16:19:36.358Z,101340.75
2023-03-16T16:22:16.584Z,101337.63
2023-03-16T16:24:54.298Z,101345.75
2023-03-16T16:27:28.579Z,101346.59
2023-03-16T16:30:09.132Z,101344.91
2023-03-16T16:32:46.602Z,101347.66
2023-03-16T16:35:27.747Z,101340.41
2023-03-16T16:38:06.020Z,101350.19
2023-03-16T16:40:46.252Z,101339.94
2023-03-16T16:43:34.977Z,101343.66
2023-03-16T16:46:33.255Z,101346.88
2023-03-16T16:49:31.248Z,101356.25
2023-03-16T16:52:13.176Z,101357.44
2023-03-16T16:54:52.291Z,101363.50
2023-03-16T16:57:23.337Z,101358.19
2023-03-16T17:00:05.538Z,101364.22
2023-03-16T17:02:57.891Z,101369.03
2023-03-16T17:05:35.644Z,101370.22
2023-03-16T17:08:14.496Z,101372.16
2023-03-16T17:10:50.521Z,101379.44
2023-03-16T17:13:32.376Z,101382.31
2023-03-16T17:16:07.438Z,101379.72
2023-03-16T17:18:42.253Z,101395.72
2023-03-16T17:21:20.095Z,101384.81
2023-03-16T17:23:51.960Z,101386.28
2023-03-16T17:26:44.631Z,101395.66
2023-03-16T17:29:29.304Z,101395.19
2023-03-16T17:32:02.513Z,101396.78
2023-03-16T17:34:37.713Z,101399.63
2023-03-16T17:37:18.786Z,101398.38
2023-03-16T17:39:57.807Z,101404.84
2023-03-16T17:42:34.506Z,101409.66
2023-03-16T17:45:15.560Z,101409.13
2023-03-16T17:47:53.105Z,101406.38
2023-03-16T17:50:30.051Z,101405.84
2023-03-16T17:53:03.708Z,101406.63
2023-03-16T17:55:43.151Z,101412.28
2023-03-16T17:58:21.853Z,101414.94
2023-03-16T18:01:01.465Z,101420.94
2023-03-16T18:03:34.954Z,101427.38
2023-03-16T18:06:06.360Z,101428.94
2023-03-16T18:08:43.460Z,101432.09
2023-03-16T18:11:20.823Z,101433.66
2023-03-16T18:13:58.339Z,101443.31
2023-03-16T18:16:39.329Z,101448.53
2023-03-16T18:19:25.448Z,101445.22
2023-03-16T18:21:58.973Z,101453.72
2023-03-16T18:24:30.656Z,101453.31
2023-03-16T18:27:12.092Z,101456.47
2023-03-16T18:29:45.808Z,101458.44
2023-03-16T18:32:33.240Z,101466.94
2023-03-16T18:35:09.744Z,101467.25
2023-03-16T18:37:43.338Z,101464.00
2023-03-16T18:40:21.666Z,101472.84
2023-03-16T18:42:55.073Z,101484.25
2023-03-16T18:45:28.302Z,101488.66
2023-03-16T18:48:04.884Z,101487.81
2023-03-16T18:50:38.022Z,101482.50
2023-03-16T18:53:18.208Z,101484.13
2023-03-16T18:56:03.802Z,101491.34
2023-03-16T18:58:47.795Z,101487.31
2023-03-16T19:01:37.619Z,101489.28
2023-03-16T19:04:36.128Z,101495.34
2023-03-16T19:07:17.300Z,101496.84
2023-03-16T19:09:58.136Z,101501.28
2023-03-16T19:12:38.443Z,101504.88
2023-03-16T19:15:28.593Z,101495.19
2023-03-16T19:18:03.839Z,101497.59
2023-03-16T19:20:44.524Z,101500.03
2023-03-16T19:23:39.143Z,101499.16
2023-03-16T19:26:15.213Z,101512.84
2023-03-16T19:28:54.209Z,101512.44
2023-03-16T19:31:29.678Z,101512.38
2023-03-16T19:34:07.987Z,101520.06
2023-03-16T19:36:47.406Z,101518.84
2023-03-16T19:39:21.335Z,101531.38
2023-03-16T19:42:03.845Z,101518.41
2023-03-16T19:44:42.230Z,101525.31
2023-03-16T19:47:28.861Z,101532.53
2023-03-16T19:50:14.665Z,101534.09
2023-03-16T19:52:52.799Z,101535.31
2023-03-16T19:55:38.041Z,101541.78
2023-03-16T19:58:20.936Z,101538.13
2023-03-16T20:01:01.310Z,101538.94
2023-03-16T20:03:37.375Z,101545.88
2023-03-16T20:06:18.137Z,101539.41
2023-03-16T20:08:57.040Z,101546.63
2023-03-16T20:11:30.932Z,101553.03
2023-03-16T20:14:08.818Z,101559.13
2023-03-16T20:16:48.298Z,101561.22
2023-03-16T20:19:16.767Z,101572.47
2023-03-16T20:21:52.711Z,101569.56
2023-03-16T20:24:31.721Z,101569.19
2023-03-16T20:27:05.524Z,101577.72
2023-03-16T20:29:38.608Z,101582.56
2023-03-16T20:32:22.396Z,101581.81
2023-03-16T20:34:58.224Z,101590.34
2023-03-16T20:37:41.957Z,101585.00
2023-03-16T20:40:16.892Z,101592.41
2023-03-16T20:42:52.764Z,101590.78
2023-03-16T20:45:30.674Z,101593.19
2023-03-16T20:48:10.256Z,101590.84
2023-03-16T20:50:46.197Z,101597.22
2023-03-16T20:53:22.745Z,101600.44
2023-03-16T20:55:54.804Z,101601.22
2023-03-16T20:58:31.018Z,101590.66
2023-03-16T21:01:07.074Z,101601.78
2023-03-16T21:03:54.319Z,101604.16
2023-03-16T21:06:35.824Z,101606.13
2023-03-16T21:09:11.964Z,101608.13
2023-03-16T21:11:48.411Z,101601.59
2023-03-16T21:14:31.433Z,101607.25
2023-03-16T21:17:10.852Z,101608.41
2023-03-16T21:19:41.774Z,101603.56
2023-03-16T21:22:26.168Z,101603.56
2023-03-16T21:25:02.549Z,101604.72
2023-03-16T21:27:39.899Z,101608.34
2023-03-16T21:30:26.305Z,101593.88
2023-03-16T21:33:05.994Z,101596.63
2023-03-16T21:35:40.851Z,101606.75
2023-03-16T21:38:17.810Z,101604.22
2023-03-16T21:40:51.890Z,101607.81
2023-03-16T21:43:25.892Z,101607.81
2023-03-16T21:45:59.668Z,101608.63
2023-03-16T21:48:42.936Z,101606.63
2023-03-16T21:51:30.685Z,101613.06
2023-03-16T21:54:09.154Z,101613.53
2023-03-16T21:56:45.853Z,101606.63
2023-03-16T21:59:24.904Z,101615.44
2023-03-16T22:02:03.453Z,101612.19
2023-03-16T22:04:41.893Z,101614.63
2023-03-16T22:07:22.429Z,101624.38
2023-03-16T22:10:03.045Z,101623.19
2023-03-16T22:12:43.176Z,101629.56
2023-03-16T22:15:20.085Z,101625.13
2023-03-16T22:18:02.692Z,101636.88
2023-03-16T22:20:38.743Z,101630.31
2023-03-16T22:23:35.318Z,101629.97
2023-03-16T22:26:15.390Z,101629.16
2023-03-16T22:28:53.888Z,101625.41
2023-03-16T22:31:35.089Z,101631.06
2023-03-16T22:34:27.980Z,101623.91
2023-03-16T22:37:02.873Z,101624.75
2023-03-16T22:39:39.572Z,101613.00
2023-03-16T22:42:35.790Z,101618.72
2023-03-16T22:45:21.756Z,101617.97
2023-03-16T22:47:54.079Z,101626.06
2023-03-16T22:50:32.431Z,101626.44
2023-03-16T22:53:09.059Z,101630.47
2023-03-16T22:55:48.921Z,101622.69
2023-03-16T22:58:40.657Z,101624.25
2023-03-16T23:01:24.169Z,101621.94
2023-03-16T23:04:01.950Z,101625.13
2023-03-16T23:06:33.808Z,101629.44
2023-03-16T23:09:09.806Z,101634.34
2023-03-16T23:11:43.467Z,101632.72
2023-03-16T23:14:21.281Z,101626.75
2023-03-16T23:17:03.818Z,101629.22
2023-03-16T23:19:39.618Z,101624.38
2023-03-16T23:22:17.013Z,101632.84
2023-03-16T23:24:47.596Z,101631.16
2023-03-16T23:27:27.550Z,101632.66
2023-03-16T23:30:01.969Z,101619.69
2023-03-16T23:32:38.953Z,101627.75
2023-03-16T23:35:25.127Z,101635.28
2023-03-16T23:37:57.682Z,101628.81
2023-03-16T23:40:35.038Z,101623.97
2023-03-16T23:43:10.544Z,101624.81
2023-03-16T23:45:52.831Z,101624.75
2023-03-16T23:48:24.086Z,101623.91
2023-03-16T23:50:58.432Z,101622.28
2023-03-16T23:53:40.635Z,101619.47
2023-03-16T23:56:14.979Z,101621.84
2023-03-16T23:58:59.512Z,101613.34
